createdAt,value
2019-02-25T00:01:55.448Z,1.10
2019-02-25T00:04:24.253Z,1.24
2019-02-25T00:06:53.122Z,1.40
2019-02-25T00:09:22.010Z,1.62
2019-02-25T00:11:50.932Z,1.77
2019-02-25T00:14:19.818Z,1.92
2019-02-25T00:16:48.738Z,2.03
2019-02-25T00:19:17.570Z,2.06
2019-02-25T00:21:46.357Z,1.96
2019-02-25T00:24:15.150Z,1.90
2019-02-25T00:26:43.984Z,1.79
2019-02-25T00:29:12.730Z,1.77
2019-02-25T00:31:41.515Z,1.66
2019-02-25T00:34:10.376Z,1.64
2019-02-25T00:36:39.174Z,1.59
2019-02-25T00:39:08.566Z,1.51
2019-02-25T00:41:37.360Z,1.39
2019-02-25T00:44:06.215Z,1.31
2019-02-25T00:46:35.066Z,1.26
2019-02-25T00:49:04.074Z,1.30
2019-02-25T00:51:32.851Z,1.23
2019-02-25T00:54:02.081Z,1.25
2019-02-25T00:56:31.805Z,1.36
2019-02-25T00:59:00.600Z,1.24
2019-02-25T01:01:29.466Z,1.30
2019-02-25T01:03:58.329Z,1.27
2019-02-25T01:06:27.257Z,1.23
2019-02-25T01:08:56.127Z,1.18
2019-02-25T01:11:24.996Z,1.03
2019-02-25T01:13:53.884Z,1.03
2019-02-25T01:16:22.668Z,1.18
2019-02-25T01:18:51.482Z,1.21
2019-02-25T01:21:20.290Z,1.35
2019-02-25T01:23:49.144Z,1.54
2019-02-25T01:26:17.887Z,1.56
2019-02-25T01:28:46.692Z,1.49
2019-02-25T01:31:15.490Z,1.47
2019-02-25T01:33:44.395Z,1.33
2019-02-25T01:36:13.167Z,1.06
2019-02-25T01:38:41.984Z,0.88
2019-02-25T01:41:10.936Z,0.87
2019-02-25T01:43:39.731Z,0.88
2019-02-25T01:46:08.509Z,0.77
2019-02-25T01:48:37.377Z,1.05
2019-02-25T01:51:06.124Z,0.95
2019-02-25T01:53:34.928Z,0.70
2019-02-25T01:56:04.236Z,0.54
2019-02-25T01:58:34.043Z,0.56
2019-02-25T02:01:02.854Z,0.73
2019-02-25T02:03:31.848Z,0.63
2019-02-25T02:06:00.653Z,0.78
2019-02-25T02:08:29.433Z,0.83
2019-02-25T02:10:58.205Z,0.79
2019-02-25T02:13:27.063Z,0.75
2019-02-25T02:15:55.955Z,0.82
2019-02-25T02:18:24.746Z,0.94
2019-02-25T02:20:53.549Z,0.79
2019-02-25T02:23:22.339Z,0.78
2019-02-25T02:25:51.138Z,0.75
2019-02-25T02:28:19.933Z,0.83
2019-02-25T02:30:48.857Z,0.83
2019-02-25T02:33:17.585Z,0.30
2019-02-25T02:35:46.389Z,-0.09
2019-02-25T02:38:15.246Z,-0.27
2019-02-25T02:40:44.170Z,-0.12
2019-02-25T02:43:12.965Z,0.03
2019-02-25T02:45:48.623Z,0.19
2019-02-25T02:48:21.500Z,0.41
2019-02-25T02:50:50.281Z,0.40
2019-02-25T02:53:19.105Z,0.10
2019-02-25T02:55:47.886Z,0.11
2019-02-25T02:58:16.663Z,0.05
2019-02-25T03:00:45.523Z,-0.30
2019-02-25T03:03:14.304Z,-0.52
2019-02-25T03:05:43.265Z,-0.48
2019-02-25T03:08:12.027Z,-0.48
2019-02-25T03:10:41.072Z,-0.30
2019-02-25T03:13:09.856Z,-0.30
2019-02-25T03:15:38.653Z,-0.29
2019-02-25T03:18:07.608Z,-0.08
2019-02-25T03:20:37.431Z,0.21
2019-02-25T03:23:06.332Z,0.48
2019-02-25T03:25:35.137Z,0.59
2019-02-25T03:28:03.942Z,0.55
2019-02-25T03:30:32.801Z,0.35
2019-02-25T03:33:01.646Z,0.24
2019-02-25T03:35:30.412Z,-0.02
2019-02-25T03:37:59.223Z,-0.23
2019-02-25T03:40:28.199Z,-0.40
2019-02-25T03:42:57.060Z,-0.48
2019-02-25T03:45:25.959Z,-0.52
2019-02-25T03:47:54.765Z,-0.60
2019-02-25T03:50:23.573Z,-0.61
2019-02-25T03:52:52.381Z,-0.67
2019-02-25T03:55:21.434Z,-0.76
2019-02-25T03:57:50.565Z,-0.68
2019-02-25T04:00:21.102Z,-0.73
2019-02-25T04:02:49.981Z,-0.69
2019-02-25T04:05:19.127Z,-0.66
2019-02-25T04:07:48.173Z,-0.66
2019-02-25T04:10:17.034Z,-0.30
2019-02-25T04:12:45.839Z,-0.09
2019-02-25T04:15:17.862Z,-0.09
2019-02-25T04:17:46.880Z,-0.11
2019-02-25T04:20:16.171Z,-0.05
2019-02-25T04:22:45.060Z,-0.07
2019-02-25T04:25:13.987Z,-0.15
2019-02-25T04:27:42.950Z,-0.30
2019-02-25T04:30:13.984Z,-0.29
2019-02-25T04:32:42.812Z,-0.23
2019-02-25T04:35:12.585Z,-0.13
2019-02-25T04:37:41.639Z,-0.06
2019-02-25T04:40:12.643Z,-0.04
2019-02-25T04:42:41.532Z,0.02
2019-02-25T04:45:13.409Z,0.09
2019-02-25T04:47:42.491Z,0.06
2019-02-25T04:50:12.075Z,-0.03
2019-02-25T04:52:41.477Z,-0.07
2019-02-25T04:55:11.708Z,-0.22
2019-02-25T04:57:41.444Z,-0.28
2019-02-25T05:00:12.841Z,-0.32
2019-02-25T05:02:41.787Z,-0.44
2019-02-25T05:05:10.670Z,-0.44
2019-02-25T05:07:39.551Z,-0.54
2019-02-25T05:10:09.474Z,-0.66
2019-02-25T05:12:39.523Z,-0.66
2019-02-25T05:15:10.153Z,-0.54
2019-02-25T05:17:38.988Z,-0.33
2019-02-25T05:20:08.076Z,-0.09
2019-02-25T05:22:37.660Z,0.17
2019-02-25T05:25:06.990Z,0.30
2019-02-25T05:27:35.807Z,0.06
2019-02-25T05:30:05.495Z,-0.41
2019-02-25T05:32:34.367Z,-0.69
2019-02-25T05:35:03.225Z,-0.79
2019-02-25T05:37:32.095Z,-0.92
2019-02-25T05:40:00.880Z,-1.09
2019-02-25T05:42:29.667Z,-1.19
2019-02-25T05:44:58.467Z,-1.26
2019-02-25T05:47:27.248Z,-1.35
2019-02-25T05:49:56.041Z,-1.32
2019-02-25T05:52:24.817Z,-1.22
2019-02-25T05:54:53.616Z,-1.13
2019-02-25T05:57:22.391Z,-0.31
2019-02-25T05:59:51.178Z,0.28
2019-02-25T06:02:19.958Z,0.62
2019-02-25T06:04:48.817Z,0.67
2019-02-25T06:07:17.601Z,0.57
2019-02-25T06:09:46.393Z,0.47
2019-02-25T06:12:15.166Z,0.12
2019-02-25T06:14:44.030Z,0.13
2019-02-25T06:17:12.920Z,-0.04
2019-02-25T06:19:41.793Z,-0.18
2019-02-25T06:22:10.595Z,-0.37
2019-02-25T06:24:39.496Z,-0.55
2019-02-25T06:27:08.318Z,-0.64
2019-02-25T06:29:37.176Z,-0.74
2019-02-25T06:32:06.106Z,-1.03
2019-02-25T06:34:34.912Z,-1.00
2019-02-25T06:37:03.714Z,-1.04
2019-02-25T06:39:32.605Z,-0.92
2019-02-25T06:42:01.382Z,-0.83
2019-02-25T06:44:30.185Z,-0.91
2019-02-25T06:46:58.975Z,-0.95
2019-02-25T06:49:27.790Z,-0.87
2019-02-25T06:51:56.579Z,-0.97
2019-02-25T06:54:25.426Z,-1.01
2019-02-25T06:56:54.282Z,-0.97
2019-02-25T06:59:23.077Z,-0.89
2019-02-25T07:01:51.938Z,-0.83
2019-02-25T07:04:39.757Z,-0.83
2019-02-25T07:07:27.545Z,-0.73
2019-02-25T07:10:18.120Z,-0.66
2019-02-25T07:13:15.627Z,-0.43
2019-02-25T07:15:50.195Z,-0.46
2019-02-25T07:18:44.267Z,-0.24
2019-02-25T07:21:18.018Z,-0.13
2019-02-25T07:24:00.519Z,0.04
2019-02-25T07:26:51.358Z,0.23
2019-02-25T07:29:26.919Z,0.40
2019-02-25T07:32:03.594Z,0.46
2019-02-25T07:34:53.604Z,0.61
2019-02-25T07:37:40.422Z,0.74
2019-02-25T07:40:37.468Z,0.94
2019-02-25T07:43:17.954Z,1.10
2019-02-25T07:46:04.478Z,1.15
2019-02-25T07:48:42.451Z,1.31
2019-02-25T07:51:18.791Z,1.44
2019-02-25T07:53:57.194Z,1.62
2019-02-25T07:57:03.342Z,1.83
2019-02-25T07:59:54.269Z,2.04
2019-02-25T08:02:37.132Z,2.16
2019-02-25T08:05:12.701Z,2.30
2019-02-25T08:08:03.363Z,2.36
2019-02-25T08:10:54.004Z,2.55
2019-02-25T08:13:37.473Z,2.86
2019-02-25T08:16:37.850Z,2.97
2019-02-25T08:19:37.721Z,3.29
2019-02-25T08:22:31.609Z,3.59
2019-02-25T08:25:19.421Z,3.64
2019-02-25T08:28:08.021Z,3.67
2019-02-25T08:31:04.837Z,3.84
2019-02-25T08:33:55.501Z,4.01
2019-02-25T08:37:12.182Z,4.14
2019-02-25T08:39:50.873Z,4.25
2019-02-25T08:42:55.294Z,4.45
2019-02-25T08:45:33.251Z,4.58
2019-02-25T08:48:33.603Z,4.75
2019-02-25T08:51:02.525Z,4.91
2019-02-25T08:53:31.336Z,5.16
2019-02-25T08:56:00.242Z,5.24
2019-02-25T08:58:29.241Z,5.39
2019-02-25T09:00:58.143Z,5.54
2019-02-25T09:03:26.958Z,5.61
2019-02-25T09:05:55.760Z,5.65
2019-02-25T09:08:24.611Z,5.79
2019-02-25T09:10:53.396Z,5.95
2019-02-25T09:13:23.801Z,5.98
2019-02-25T09:15:53.017Z,5.74
2019-02-25T09:18:21.880Z,5.83
2019-02-25T09:20:50.714Z,5.91
2019-02-25T09:23:20.571Z,6.05
2019-02-25T09:25:49.355Z,6.11
2019-02-25T09:28:18.219Z,6.08
2019-02-25T09:30:46.990Z,6.02
2019-02-25T09:33:15.777Z,6.07
2019-02-25T09:35:44.721Z,6.24
2019-02-25T09:38:13.509Z,6.19
2019-02-25T09:40:42.642Z,6.28
2019-02-25T09:43:11.613Z,6.53
2019-02-25T09:45:40.504Z,6.55
2019-02-25T09:48:09.292Z,6.67
2019-02-25T09:50:38.065Z,6.79
2019-02-25T09:53:07.437Z,7.05
2019-02-25T09:55:36.336Z,7.18
2019-02-25T09:58:05.316Z,7.44
2019-02-25T10:00:34.239Z,7.52
2019-02-25T10:03:03.032Z,7.68
2019-02-25T10:05:31.835Z,7.62
2019-02-25T10:08:00.621Z,7.75
2019-02-25T10:10:29.405Z,7.92
2019-02-25T10:12:58.203Z,8.17
2019-02-25T10:15:26.992Z,8.28
2019-02-25T10:17:55.963Z,8.37
2019-02-25T10:20:24.904Z,8.52
2019-02-25T10:22:53.781Z,8.61
2019-02-25T10:25:22.642Z,8.75
2019-02-25T10:27:52.332Z,8.92
2019-02-25T10:30:21.395Z,8.93
2019-02-25T10:32:50.264Z,9.20
2019-02-25T10:35:19.749Z,9.41
2019-02-25T10:37:48.528Z,9.50
2019-02-25T10:40:21.615Z,9.47
2019-02-25T10:42:47.977Z,9.56
2019-02-25T10:45:17.317Z,9.60
2019-02-25T10:47:46.747Z,9.82
2019-02-25T10:50:17.083Z,10.02
2019-02-25T10:52:47.618Z,10.09
2019-02-25T10:55:20.467Z,10.28
2019-02-25T10:57:49.328Z,10.42
2019-02-25T11:00:18.744Z,10.48
2019-02-25T11:02:49.523Z,10.62
2019-02-25T11:05:19.095Z,10.71
2019-02-25T11:07:48.834Z,10.93
2019-02-25T11:10:28.043Z,11.18
2019-02-25T11:12:57.705Z,11.28
2019-02-25T11:15:28.753Z,11.42
2019-02-25T11:20:27.207Z,11.25
2019-02-25T11:22:55.913Z,11.28
2019-02-25T11:25:26.319Z,11.20
2019-02-25T11:27:55.496Z,11.44
2019-02-25T11:30:24.401Z,11.64
2019-02-25T11:32:56.165Z,11.60
2019-02-25T11:35:24.942Z,11.53
2019-02-25T11:37:56.641Z,11.67
2019-02-25T11:40:26.042Z,11.70
2019-02-25T11:42:55.683Z,12.00
2019-02-25T11:45:24.580Z,12.11
2019-02-25T11:47:53.451Z,12.08
2019-02-25T11:50:22.321Z,12.11
2019-02-25T11:52:51.166Z,12.27
2019-02-25T11:55:21.901Z,12.34
2019-02-25T11:57:50.534Z,12.42
2019-02-25T12:25:05.739Z,13.00
2019-02-25T12:27:34.599Z,13.32
2019-02-25T12:30:03.669Z,13.49
2019-02-25T12:32:32.558Z,13.56
2019-02-25T12:35:01.315Z,13.51
2019-02-25T12:37:30.162Z,13.47
2019-02-25T12:39:59.030Z,13.63
2019-02-25T12:42:27.879Z,13.52
2019-02-25T12:44:56.738Z,13.51
2019-02-25T12:47:26.330Z,13.53
2019-02-25T12:49:55.157Z,13.59
2019-02-25T12:52:23.982Z,13.69
2019-02-25T12:54:52.779Z,13.66
2019-02-25T12:57:21.570Z,13.76
2019-02-25T12:59:50.359Z,13.76
2019-02-25T13:02:19.141Z,13.92
2019-02-25T13:04:47.912Z,13.84
2019-02-25T13:07:16.684Z,13.89
2019-02-25T13:09:45.470Z,13.89
2019-02-25T13:12:14.239Z,14.03
2019-02-25T13:14:43.033Z,13.99
2019-02-25T13:17:11.882Z,14.08
2019-02-25T13:19:40.674Z,14.06
2019-02-25T13:22:09.452Z,14.13
2019-02-25T13:24:39.552Z,14.15
2019-02-25T13:27:09.152Z,14.34
2019-02-25T13:29:38.911Z,14.39
2019-02-25T13:32:07.762Z,14.44
2019-02-25T13:34:36.550Z,14.61
2019-02-25T13:37:05.631Z,14.66
2019-02-25T13:39:36.538Z,14.77
2019-02-25T13:42:05.105Z,14.88
2019-02-25T13:44:33.885Z,14.85
2019-02-25T13:47:02.685Z,14.94
2019-02-25T13:49:31.518Z,14.93
2019-02-25T13:52:00.500Z,14.79
2019-02-25T13:54:29.546Z,15.07
2019-02-25T13:56:58.591Z,15.00
2019-02-25T13:59:28.634Z,14.95
2019-02-25T14:01:58.704Z,15.05
2019-02-25T14:04:28.675Z,15.16
2019-02-25T14:06:57.789Z,15.16
2019-02-25T14:09:26.885Z,15.21
2019-02-25T14:11:55.856Z,15.36
2019-02-25T14:14:24.704Z,15.31
2019-02-25T14:16:53.493Z,15.44
2019-02-25T14:19:22.548Z,15.49
2019-02-25T14:21:51.470Z,15.44
2019-02-25T14:24:20.913Z,15.59
2019-02-25T14:26:49.869Z,15.81
2019-02-25T14:29:18.916Z,15.78
2019-02-25T14:31:48.948Z,15.83
2019-02-25T14:34:18.217Z,16.03
2019-02-25T14:36:48.357Z,16.04
2019-02-25T14:39:28.516Z,16.05
2019-02-25T14:41:59.271Z,16.02
2019-02-25T14:44:32.452Z,16.22
2019-02-25T14:47:00.869Z,16.26
2019-02-25T14:49:32.189Z,16.45
2019-02-25T14:52:00.839Z,16.26
2019-02-25T14:54:32.307Z,16.17
2019-02-25T14:57:01.135Z,16.21
2019-02-25T14:59:30.243Z,16.17
2019-02-25T15:02:01.086Z,16.14
2019-02-25T15:04:30.459Z,16.13
2019-02-25T15:06:59.306Z,16.28
2019-02-25T15:09:28.367Z,16.14
2019-02-25T15:11:59.781Z,16.14
2019-02-25T15:14:29.237Z,16.09
2019-02-25T15:16:58.021Z,16.10
2019-02-25T15:19:27.929Z,16.02
2019-02-25T15:21:58.424Z,15.99
2019-02-25T15:24:27.581Z,16.05
2019-02-25T15:26:57.570Z,15.82
2019-02-25T15:29:26.954Z,15.79
2019-02-25T15:31:57.048Z,15.79
2019-02-25T15:34:26.229Z,15.76
2019-02-25T15:36:56.416Z,15.66
2019-02-25T15:39:25.990Z,15.65
2019-02-25T15:41:55.246Z,15.66
2019-02-25T15:44:24.431Z,15.70
2019-02-25T15:46:53.648Z,15.75
2019-02-25T15:49:24.439Z,15.77
2019-02-25T15:51:53.269Z,15.72
2019-02-25T15:54:22.243Z,15.71
2019-02-25T15:56:51.034Z,15.80
2019-02-25T15:59:19.993Z,15.80
2019-02-25T16:01:49.120Z,15.78
2019-02-25T16:04:18.068Z,15.78
2019-02-25T16:06:47.276Z,15.77
2019-02-25T16:09:19.255Z,15.63
2019-02-25T16:11:47.892Z,15.65
2019-02-25T16:14:16.925Z,15.71
2019-02-25T16:16:45.974Z,15.73
2019-02-25T16:19:16.991Z,15.68
2019-02-25T16:21:45.867Z,15.52
2019-02-25T16:24:16.522Z,15.40
2019-02-25T16:26:45.703Z,15.25
2019-02-25T16:29:14.617Z,15.20
2019-02-25T16:31:43.708Z,15.07
2019-02-25T16:34:14.321Z,14.97
2019-02-25T16:36:45.198Z,14.85
2019-02-25T16:39:14.328Z,14.70
2019-02-25T16:41:43.870Z,14.51
2019-02-25T16:44:13.809Z,14.34
2019-02-25T16:46:43.743Z,14.21
2019-02-25T16:49:13.399Z,14.12
2019-02-25T16:51:42.288Z,14.02
2019-02-25T16:54:13.389Z,13.83
2019-02-25T16:56:42.147Z,13.78
2019-02-25T16:59:11.797Z,13.71
2019-02-25T17:01:41.710Z,13.58
2019-02-25T17:04:12.097Z,13.45
2019-02-25T17:06:41.194Z,13.36
2019-02-25T17:09:13.538Z,13.41
2019-02-25T17:11:43.791Z,13.44
2019-02-25T17:14:12.799Z,13.35
2019-02-25T17:16:41.624Z,13.23
2019-02-25T17:19:10.405Z,13.11
2019-02-25T17:21:42.923Z,13.05
2019-02-25T17:24:09.932Z,13.06
2019-02-25T17:26:38.961Z,12.80
2019-02-25T17:29:07.885Z,12.79
2019-02-25T17:31:38.579Z,12.84
2019-02-25T17:34:07.345Z,13.03
2019-02-25T17:36:36.128Z,13.03
2019-02-25T17:39:08.590Z,13.22
2019-02-25T17:41:37.777Z,13.21
2019-02-25T17:44:07.766Z,13.11
2019-02-25T17:46:39.139Z,12.98
2019-02-25T17:49:10.051Z,12.83
2019-02-25T17:51:39.346Z,12.69
2019-02-25T17:54:10.123Z,12.57
2019-02-25T17:56:40.512Z,12.56
2019-02-25T17:59:09.754Z,12.59
2019-02-25T18:01:39.545Z,12.59
2019-02-25T18:04:10.850Z,12.58
2019-02-25T18:06:41.399Z,12.48
2019-02-25T18:09:11.006Z,12.26
2019-02-25T18:11:41.209Z,12.11
2019-02-25T18:14:11.670Z,11.97
2019-02-25T18:16:45.613Z,12.04
2019-02-25T18:19:13.959Z,12.03
2019-02-25T18:21:43.726Z,11.96
2019-02-25T18:24:13.027Z,11.90
2019-02-25T18:26:42.019Z,11.85
2019-02-25T18:29:11.711Z,11.74
2019-02-25T18:31:41.479Z,11.65
2019-02-25T18:34:11.184Z,11.52
2019-02-25T18:36:40.575Z,11.39
2019-02-25T18:39:13.312Z,11.32
2019-02-25T18:41:42.269Z,11.19
2019-02-25T18:44:11.891Z,11.13
2019-02-25T18:46:43.899Z,11.05
2019-02-25T18:49:13.772Z,11.04
2019-02-25T18:51:42.696Z,11.02
2019-02-25T18:54:11.559Z,10.90
2019-02-25T18:56:42.351Z,10.80
2019-02-25T18:59:15.361Z,10.65
2019-02-25T19:01:43.141Z,10.56
2019-02-25T19:04:13.246Z,10.46
2019-02-25T19:06:43.571Z,10.39
2019-02-25T19:09:21.208Z,10.24
2019-02-25T19:11:51.234Z,10.12
2019-02-25T19:14:22.057Z,10.00
2019-02-25T19:16:51.135Z,9.74
2019-02-25T19:19:19.987Z,9.74
2019-02-25T19:21:49.972Z,9.75
2019-02-25T19:24:19.422Z,9.65
2019-02-25T19:26:49.034Z,9.58
2019-02-25T19:29:19.490Z,9.56
2019-02-25T19:31:48.820Z,9.51
2019-02-25T19:34:17.769Z,9.44
2019-02-25T19:36:46.687Z,9.42
2019-02-25T19:39:17.383Z,9.37
2019-02-25T19:41:47.125Z,9.29
2019-02-25T19:44:16.611Z,9.26
2019-02-25T19:46:48.018Z,9.26
2019-02-25T19:49:18.205Z,9.41
2019-02-25T19:51:47.998Z,9.48
2019-02-25T19:54:18.627Z,9.41
2019-02-25T19:56:48.420Z,9.36
2019-02-25T19:59:19.441Z,9.33
2019-02-25T20:01:48.517Z,9.30
2019-02-25T20:04:18.835Z,9.11
2019-02-25T20:06:48.967Z,8.94
2019-02-25T20:09:19.244Z,8.95
2019-02-25T20:11:48.107Z,9.05
2019-02-25T20:14:17.636Z,9.10
2019-02-25T20:16:47.372Z,9.14
2019-02-25T20:19:16.881Z,9.03
2019-02-25T20:21:46.532Z,8.84
2019-02-25T20:24:17.286Z,8.63
2019-02-25T20:26:50.661Z,8.55
2019-02-25T20:29:17.609Z,8.45
2019-02-25T20:31:47.556Z,8.43
2019-02-25T20:34:20.567Z,8.46
2019-02-25T20:36:48.348Z,8.50
2019-02-25T20:39:17.903Z,8.43
2019-02-25T20:41:48.322Z,7.90
2019-02-25T20:44:18.569Z,7.40
2019-02-25T20:46:50.635Z,7.11
2019-02-25T20:49:20.354Z,6.80
2019-02-25T20:51:50.053Z,6.69
2019-02-25T20:54:20.947Z,6.61
2019-02-25T20:56:51.256Z,6.60
2019-02-25T20:59:21.100Z,6.49
2019-02-25T21:01:52.621Z,6.42
2019-02-25T21:04:22.273Z,6.38
2019-02-25T21:06:51.235Z,6.35
2019-02-25T21:09:20.011Z,6.28
2019-02-25T21:11:48.791Z,6.29
2019-02-25T21:14:17.585Z,6.29
2019-02-25T21:16:46.350Z,6.34
2019-02-25T21:19:18.404Z,6.38
2019-02-25T21:21:46.737Z,6.43
2019-02-25T21:24:16.249Z,6.42
2019-02-25T21:26:45.042Z,6.37
2019-02-25T21:29:13.828Z,6.32
2019-02-25T21:31:43.178Z,6.19
2019-02-25T21:34:17.766Z,6.10
2019-02-25T21:36:43.627Z,5.99
2019-02-25T21:39:14.730Z,5.93
2019-02-25T21:41:44.062Z,5.69
2019-02-25T21:44:16.596Z,5.53
2019-02-25T21:46:49.479Z,5.49
2019-02-25T21:49:15.006Z,5.37
2019-02-25T21:51:47.762Z,5.31
2019-02-25T21:54:14.441Z,5.25
2019-02-25T21:56:43.243Z,5.42
2019-02-25T22:02:41.478Z,5.45
2019-02-25T22:05:12.256Z,5.32
2019-02-25T22:07:41.140Z,5.18
2019-02-25T22:10:11.205Z,5.12
2019-02-25T22:12:42.060Z,5.16
2019-02-25T22:15:13.089Z,5.06
2019-02-25T22:17:44.029Z,5.02
2019-02-25T22:20:14.381Z,5.04
2019-02-25T22:22:43.774Z,4.98
2019-02-25T22:25:15.415Z,5.04
2019-02-25T22:27:45.624Z,5.05
2019-02-25T22:30:15.339Z,5.23
2019-02-25T22:32:44.286Z,5.27
2019-02-25T22:35:15.108Z,5.24
2019-02-25T22:37:46.845Z,5.30
2019-02-25T22:40:16.766Z,5.29
2019-02-25T22:42:47.134Z,5.29
2019-02-25T22:45:16.901Z,5.24
2019-02-25T22:47:46.392Z,5.18
2019-02-25T22:50:15.420Z,4.99
2019-02-25T22:52:44.478Z,4.89
2019-02-25T22:55:15.388Z,4.90
2019-02-25T22:57:46.127Z,5.10
2019-02-25T23:00:43.911Z,5.05
2019-02-25T23:03:15.121Z,5.02
2019-02-25T23:05:45.411Z,5.02
2019-02-25T23:08:15.634Z,5.09
2019-02-25T23:10:46.773Z,5.30
2019-02-25T23:13:15.285Z,5.34
2019-02-25T23:15:46.125Z,5.47
2019-02-25T23:18:16.596Z,5.50
2019-02-25T23:20:45.390Z,5.48
2019-02-25T23:23:14.145Z,5.56
2019-02-25T23:25:42.922Z,5.15
2019-02-25T23:28:11.695Z,5.20
2019-02-25T23:30:40.618Z,5.22
2019-02-25T23:33:11.828Z,5.05
2019-02-25T23:35:42.691Z,4.96
2019-02-25T23:38:10.555Z,4.51
2019-02-25T23:40:40.268Z,4.51
2019-02-25T23:43:11.918Z,4.51
2019-02-25T23:45:42.117Z,4.34
2019-02-25T23:48:11.719Z,4.36
2019-02-25T23:50:40.641Z,4.28
2019-02-25T23:53:09.430Z,4.32
2019-02-25T23:55:38.300Z,4.23
2019-02-25T23:58:10.292Z,4.37
